Time;durP1;ratioP1;P1;durP2;ratioP2;P2;SDS_P1;SDS_P2;PMS_P1;PMS_P2;Temp;Humidity;BMP_temperature;BMP_pressure;BME280_temperature;BME280_humidity;BME280_pressure;Samples;Min_cycle;Max_cycle;Signal;HPM_P1;HPM_P2
2023/06/22 00:00:41;;;;;;;10.07;7.45;;;;;;;;;;5067131;28;20426;-73
2023/06/22 00:03:07;;;;;;;11.75;6.75;;;;;;;;;;5035152;28;20040;-74
2023/06/22 00:05:32;;;;;;;12.25;6.50;;;;;;;;;;5051603;28;20029;-74
2023/06/22 00:07:57;;;;;;;11.68;7.65;;;;;;;;;;5068967;28;20397;-74
2023/06/22 00:10:22;;;;;;;12.85;7.03;;;;;;;;;;5070300;28;20024;-74
2023/06/22 00:12:48;;;;;;;13.00;8.52;;;;;;;;;;5071031;28;20389;-74
2023/06/22 00:15:13;;;;;;;17.58;9.85;;;;;;;;;;5055322;28;20036;-74
2023/06/22 00:17:38;;;;;;;9.73;6.13;;;;;;;;;;5051741;28;20028;-74
2023/06/22 00:20:05;;;;;;;12.70;6.30;;;;;;;;;;5035027;28;20084;-74
2023/06/22 00:22:31;;;;;;;11.95;6.50;;;;;;;;;;5070648;28;20248;-74
2023/06/22 00:24:56;;;;;;;11.05;8.40;;;;;;;;;;5072715;28;20367;-74
2023/06/22 00:27:22;;;;;;;9.27;5.70;;;;;;;;;;5071492;28;20021;-74
2023/06/22 00:29:47;;;;;;;10.82;5.32;;;;;;;;;;5072942;28;20028;-74
2023/06/22 00:32:12;;;;;;;10.93;7.03;;;;;;;;;;5072451;28;20484;-74
2023/06/22 00:34:38;;;;;;;14.60;7.72;;;;;;;;;;5062558;28;20036;-74
2023/06/22 00:37:03;;;;;;;10.68;6.10;;;;;;;;;;5052772;28;20079;-74
2023/06/22 00:39:29;;;;;;;12.13;8.25;;;;;;;;;;5052514;28;20064;-74
2023/06/22 00:41:54;;;;;;;10.98;6.75;;;;;;;;;;5055061;28;20024;-74
2023/06/22 00:44:20;;;;;;;14.07;8.68;;;;;;;;;;5051563;28;20371;-74
2023/06/22 00:46:45;;;;;;;10.90;8.18;;;;;;;;;;5054519;28;20368;-74
2023/06/22 00:49:10;;;;;;;12.93;7.78;;;;;;;;;;5069062;28;20032;-74
2023/06/22 00:51:38;;;;;;;15.52;8.77;;;;;;;;;;5075616;28;20032;-73
2023/06/22 00:54:05;;;;;;;13.00;7.78;;;;;;;;;;5075226;28;20024;-74
2023/06/22 00:56:30;;;;;;;15.38;8.57;;;;;;;;;;5076338;28;20021;-74
2023/06/22 00:58:57;;;;;;;12.77;8.02;;;;;;;;;;5075202;28;20051;-73
2023/06/22 01:01:22;;;;;;;11.73;7.60;;;;;;;;;;5074968;28;20024;-74
2023/06/22 01:03:48;;;;;;;12.27;6.97;;;;;;;;;;5076120;28;20024;-74
2023/06/22 01:06:21;;;;;;;12.45;6.72;;;;;;;;;;5076270;28;20027;-74
2023/06/22 01:08:51;;;;;;;14.15;8.82;;;;;;;;;;5058180;28;20501;-74
2023/06/22 01:11:28;;;;;;;15.63;8.57;;;;;;;;;;5074998;28;20047;-74
2023/06/22 01:14:04;;;;;;;10.45;7.03;;;;;;;;;;5074861;28;20069;-74
2023/06/22 01:16:31;;;;;;;13.13;8.80;;;;;;;;;;5108992;22;20421;-75
2023/06/22 01:18:58;;;;;;;11.02;6.10;;;;;;;;;;5079868;28;20120;-75
2023/06/22 01:21:24;;;;;;;10.15;6.68;;;;;;;;;;5074708;28;20028;-75
2023/06/22 01:24:02;;;;;;;10.05;6.13;;;;;;;;;;5074868;28;20056;-75
2023/06/22 01:26:42;;;;;;;14.02;8.07;;;;;;;;;;5073596;28;20039;-75
2023/06/22 01:29:09;;;;;;;12.77;6.60;;;;;;;;;;5074770;28;20064;-75
2023/06/22 01:31:35;;;;;;;11.50;7.10;;;;;;;;;;5074420;28;20069;-75
2023/06/22 01:34:03;;;;;;;10.20;5.85;;;;;;;;;;5073772;28;20486;-75
2023/06/22 01:36:30;;;;;;;9.23;5.32;;;;;;;;;;5074500;28;20024;-75
2023/06/22 01:38:57;;;;;;;10.13;5.60;;;;;;;;;;5054374;28;20024;-75
2023/06/22 01:41:25;;;;;;;9.30;5.50;;;;;;;;;;5070895;28;20036;-75
2023/06/22 01:43:51;;;;;;;9.60;6.00;;;;;;;;;;5037519;28;20025;-75
2023/06/22 01:46:19;;;;;;;10.30;5.25;;;;;;;;;;5051353;28;20067;-75
2023/06/22 01:48:44;;;;;;;9.90;5.88;;;;;;;;;;5070368;28;20025;-75
2023/06/22 01:51:09;;;;;;;8.02;5.07;;;;;;;;;;5061658;28;20029;-75
2023/06/22 01:53:35;;;;;;;7.40;4.95;;;;;;;;;;5073387;28;20036;-75
2023/06/22 01:56:00;;;;;;;9.95;6.88;;;;;;;;;;5073997;28;20409;-75
2023/06/22 01:58:27;;;;;;;8.73;4.55;;;;;;;;;;5063321;28;20162;-75
2023/06/22 02:00:59;;;;;;;6.75;4.50;;;;;;;;;;5074080;28;20024;-75
2023/06/22 02:03:32;;;;;;;6.28;3.80;;;;;;;;;;5074071;28;20169;-75
2023/06/22 02:06:11;;;;;;;6.25;3.70;;;;;;;;;;5070582;28;20021;-75
2023/06/22 02:08:41;;;;;;;7.88;4.95;;;;;;;;;;5053900;28;20025;-75
2023/06/22 02:11:08;;;;;;;7.47;4.65;;;;;;;;;;5054045;28;20024;-75
2023/06/22 02:13:33;;;;;;;9.02;5.60;;;;;;;;;;5056583;28;20032;-75
2023/06/22 02:16:00;;;;;;;8.75;6.63;;;;;;;;;;5053698;28;20398;-75
2023/06/22 02:18:25;;;;;;;8.10;5.13;;;;;;;;;;5055847;28;20108;-75
2023/06/22 02:20:50;;;;;;;8.05;5.25;;;;;;;;;;5053714;28;20159;-75
2023/06/22 02:23:16;;;;;;;7.25;4.25;;;;;;;;;;5054683;28;20027;-75
2023/06/22 02:25:44;;;;;;;7.65;4.35;;;;;;;;;;5072513;28;20021;-75
2023/06/22 02:28:09;;;;;;;6.95;4.30;;;;;;;;;;5071773;28;20075;-75
2023/06/22 02:30:34;;;;;;;7.00;4.20;;;;;;;;;;5074348;28;20028;-75
2023/06/22 02:33:00;;;;;;;6.68;4.20;;;;;;;;;;5065495;28;20549;-75
2023/06/22 02:35:31;;;;;;;7.45;5.05;;;;;;;;;;5054529;28;20029;-75
2023/06/22 02:38:00;;;;;;;9.93;6.10;;;;;;;;;;5054119;28;20025;-75
2023/06/22 02:40:26;;;;;;;7.57;5.05;;;;;;;;;;5057261;28;20036;-75
2023/06/22 02:42:51;;;;;;;6.70;4.65;;;;;;;;;;5069804;28;20025;-75
2023/06/22 02:45:16;;;;;;;6.70;4.10;;;;;;;;;;5067680;28;20028;-75
2023/06/22 02:47:42;;;;;;;6.22;3.90;;;;;;;;;;5054023;28;20071;-75
2023/06/22 02:50:07;;;;;;;5.72;3.35;;;;;;;;;;5065265;28;20020;-75
2023/06/22 02:52:33;;;;;;;6.35;5.20;;;;;;;;;;5052934;28;20375;-75
2023/06/22 02:54:59;;;;;;;7.32;4.85;;;;;;;;;;5057794;28;20016;-75
2023/06/22 02:57:24;;;;;;;8.18;5.63;;;;;;;;;;5074806;28;20095;-75
2023/06/22 02:59:49;;;;;;;7.38;5.13;;;;;;;;;;5065526;28;20021;-75
2023/06/22 03:02:14;;;;;;;8.48;5.00;;;;;;;;;;5072525;28;20054;-75
2023/06/22 03:04:40;;;;;;;10.20;6.10;;;;;;;;;;5054501;28;20040;-75
2023/06/22 03:07:05;;;;;;;7.13;4.75;;;;;;;;;;5052719;28;20447;-75
2023/06/22 03:09:30;;;;;;;5.78;4.63;;;;;;;;;;5068127;28;20604;-75
2023/06/22 03:11:56;;;;;;;8.23;5.32;;;;;;;;;;5067169;28;20103;-75
2023/06/22 03:14:21;;;;;;;10.75;6.97;;;;;;;;;;5054816;28;20024;-75
2023/06/22 03:16:47;;;;;;;8.65;5.18;;;;;;;;;;5062660;28;20198;-75
2023/06/22 03:19:12;;;;;;;9.00;6.20;;;;;;;;;;5072456;28;20040;-75
2023/06/22 03:21:41;;;;;;;9.27;5.82;;;;;;;;;;5052586;28;20402;-75
2023/06/22 03:24:07;;;;;;;7.47;4.70;;;;;;;;;;5056045;28;20020;-75
2023/06/22 03:26:32;;;;;;;8.05;4.50;;;;;;;;;;5062797;28;20139;-75
2023/06/22 03:28:58;;;;;;;11.38;7.05;;;;;;;;;;5053466;28;20059;-76
2023/06/22 03:31:23;;;;;;;11.20;6.72;;;;;;;;;;5054301;28;20025;-75
2023/06/22 03:33:49;;;;;;;12.05;7.30;;;;;;;;;;5053723;28;20067;-76
2023/06/22 03:36:18;;;;;;;9.73;5.30;;;;;;;;;;5035786;28;20027;-75
2023/06/22 03:38:44;;;;;;;9.30;5.55;;;;;;;;;;5055884;28;20024;-75
2023/06/22 03:41:09;;;;;;;8.63;5.32;;;;;;;;;;5073233;28;20024;-75
2023/06/22 03:43:35;;;;;;;8.60;6.25;;;;;;;;;;5055026;28;20399;-75
2023/06/22 03:46:00;;;;;;;9.07;5.15;;;;;;;;;;5051825;28;20111;-75
2023/06/22 03:48:25;;;;;;;8.65;5.80;;;;;;;;;;5066744;28;20126;-76
2023/06/22 03:50:51;;;;;;;7.68;5.22;;;;;;;;;;5071855;28;20028;-76
2023/06/22 03:53:16;;;;;;;7.18;5.03;;;;;;;;;;5068187;28;20052;-75
2023/06/22 03:55:51;;;;;;;6.75;4.35;;;;;;;;;;5051510;28;20098;-76
2023/06/22 03:58:18;;;;;;;8.75;6.22;;;;;;;;;;5052025;28;20024;-76
2023/06/22 04:00:44;;;;;;;7.13;4.60;;;;;;;;;;5069605;28;20036;-76
2023/06/22 04:03:09;;;;;;;9.93;5.90;;;;;;;;;;5071637;28;20028;-76
2023/06/22 04:05:35;;;;;;;8.98;6.07;;;;;;;;;;5071858;28;20032;-76
2023/06/22 04:08:00;;;;;;;6.57;4.63;;;;;;;;;;5071973;28;20474;-76
2023/06/22 04:10:25;;;;;;;6.63;4.50;;;;;;;;;;5070281;28;20024;-76
2023/06/22 04:12:51;;;;;;;7.72;4.43;;;;;;;;;;5069010;28;20397;-76
2023/06/22 04:15:16;;;;;;;7.00;4.40;;;;;;;;;;5072307;28;20032;-76
2023/06/22 04:17:41;;;;;;;10.20;6.18;;;;;;;;;;5065819;28;20071;-76
2023/06/22 04:20:07;;;;;;;7.32;5.10;;;;;;;;;;5052548;28;20033;-76
2023/06/22 04:22:32;;;;;;;7.45;4.88;;;;;;;;;;5051544;28;20090;-76
2023/06/22 04:24:58;;;;;;;9.45;4.43;;;;;;;;;;5053933;28;20021;-76
2023/06/22 04:27:23;;;;;;;6.43;4.43;;;;;;;;;;5059101;28;20024;-76
2023/06/22 04:29:49;;;;;;;7.43;5.28;;;;;;;;;;5071542;28;20020;-76
2023/06/22 04:32:17;;;;;;;8.68;6.28;;;;;;;;;;5072571;28;20435;-76
2023/06/22 04:34:43;;;;;;;9.10;6.00;;;;;;;;;;5071883;28;20024;-76
2023/06/22 04:37:08;;;;;;;11.70;7.10;;;;;;;;;;5071352;28;20028;-76
2023/06/22 04:39:34;;;;;;;12.38;7.38;;;;;;;;;;5054041;28;20036;-76
2023/06/22 04:42:00;;;;;;;13.88;8.43;;;;;;;;;;5057914;28;20020;-76
2023/06/22 04:44:26;;;;;;;13.00;9.00;;;;;;;;;;5071473;28;20437;-76
2023/06/22 04:46:59;;;;;;;12.55;8.25;;;;;;;;;;5088002;28;20026;-76
2023/06/22 04:49:32;;;;;;;13.98;7.30;;;;;;;;;;5051816;28;20021;-76
2023/06/22 04:51:58;;;;;;;15.15;7.90;;;;;;;;;;5051211;28;20074;-76
2023/06/22 04:54:24;;;;;;;13.43;8.02;;;;;;;;;;5065902;28;20078;-76
2023/06/22 04:56:56;;;;;;;23.10;11.90;;;;;;;;;;5071511;28;20017;-76
2023/06/22 04:59:22;;;;;;;19.35;11.35;;;;;;;;;;5071541;28;20107;-76
2023/06/22 05:01:47;;;;;;;16.35;9.50;;;;;;;;;;5068340;28;20474;-76
2023/06/22 05:04:12;;;;;;;18.85;9.80;;;;;;;;;;5071309;28;20025;-76
2023/06/22 05:06:38;;;;;;;25.25;13.88;;;;;;;;;;5059633;28;20471;-76
2023/06/22 05:09:03;;;;;;;25.70;12.82;;;;;;;;;;5051034;28;20129;-76
2023/06/22 05:11:29;;;;;;;22.20;11.60;;;;;;;;;;5052230;28;20028;-76
2023/06/22 05:13:55;;;;;;;23.60;14.18;;;;;;;;;;5064833;28;20119;-76
2023/06/22 05:16:24;;;;;;;24.95;11.88;;;;;;;;;;5050895;28;20033;-76
2023/06/22 05:18:53;;;;;;;19.90;11.20;;;;;;;;;;5036745;28;20044;-76
2023/06/22 05:21:22;;;;;;;27.38;14.82;;;;;;;;;;5051408;28;20029;-76
2023/06/22 05:23:47;;;;;;;27.75;14.00;;;;;;;;;;5051089;28;20029;-76
2023/06/22 05:26:12;;;;;;;30.10;16.50;;;;;;;;;;5054994;28;20032;-76
2023/06/22 05:28:38;;;;;;;27.15;15.52;;;;;;;;;;5071207;28;20367;-76
2023/06/22 05:31:03;;;;;;;30.20;14.82;;;;;;;;;;5073165;28;20048;-76
2023/06/22 05:33:29;;;;;;;28.65;15.82;;;;;;;;;;5072772;28;20058;-73
2023/06/22 05:35:54;;;;;;;17.40;11.40;;;;;;;;;;5074929;28;20111;-73
2023/06/22 05:38:19;;;;;;;23.85;12.15;;;;;;;;;;5073956;28;20044;-73
2023/06/22 05:40:44;;;;;;;25.15;15.00;;;;;;;;;;5074522;28;20500;-74
2023/06/22 05:43:10;;;;;;;26.10;14.93;;;;;;;;;;5071024;28;20029;-74
2023/06/22 05:45:35;;;;;;;22.35;12.15;;;;;;;;;;5053967;28;20075;-76
2023/06/22 05:48:01;;;;;;;17.60;11.48;;;;;;;;;;5056134;28;20520;-76
2023/06/22 05:50:26;;;;;;;20.08;11.85;;;;;;;;;;5074712;28;20025;-76
2023/06/22 05:52:52;;;;;;;19.05;10.50;;;;;;;;;;5075102;28;20482;-75
2023/06/22 05:55:18;;;;;;;18.77;12.18;;;;;;;;;;5059652;28;20112;-75
2023/06/22 05:57:44;;;;;;;20.73;11.65;;;;;;;;;;5062057;28;20046;-76
2023/06/22 06:00:11;;;;;;;24.48;13.50;;;;;;;;;;5074048;28;20032;-72
2023/06/22 06:02:36;;;;;;;18.55;11.32;;;;;;;;;;5060510;28;20032;-72
2023/06/22 06:05:02;;;;;;;15.30;8.98;;;;;;;;;;5057235;28;20441;-72
2023/06/22 06:07:28;;;;;;;23.40;10.50;;;;;;;;;;5053756;28;20025;-72
2023/06/22 06:09:53;;;;;;;17.58;10.35;;;;;;;;;;5062469;28;20021;-72
2023/06/22 06:12:18;;;;;;;23.80;12.52;;;;;;;;;;5070555;28;20363;-73
2023/06/22 06:14:43;;;;;;;12.20;9.63;;;;;;;;;;5054745;28;20056;-72
2023/06/22 06:17:09;;;;;;;17.90;10.02;;;;;;;;;;5053726;28;20083;-72
2023/06/22 06:19:34;;;;;;;15.95;10.38;;;;;;;;;;5072889;28;20031;-72
2023/06/22 06:22:00;;;;;;;22.83;11.23;;;;;;;;;;5073298;28;20033;-72
2023/06/22 06:24:26;;;;;;;16.17;10.80;;;;;;;;;;5063006;28;20036;-72
2023/06/22 06:26:51;;;;;;;16.20;10.18;;;;;;;;;;5053980;28;20041;-72
2023/06/22 06:29:17;;;;;;;15.93;9.93;;;;;;;;;;5054813;28;20028;-72
2023/06/22 06:31:42;;;;;;;14.43;8.30;;;;;;;;;;5036473;28;20056;-71
2023/06/22 06:34:07;;;;;;;19.35;10.75;;;;;;;;;;5066929;28;20027;-72
2023/06/22 06:36:32;;;;;;;15.63;8.90;;;;;;;;;;5072894;28;20017;-73
2023/06/22 06:38:58;;;;;;;15.05;8.57;;;;;;;;;;5072436;28;20477;-72
2023/06/22 06:41:23;;;;;;;11.95;7.65;;;;;;;;;;5074542;28;20027;-72
2023/06/22 06:43:48;;;;;;;15.38;10.50;;;;;;;;;;5067283;28;20139;-73
2023/06/22 06:46:14;;;;;;;14.60;9.98;;;;;;;;;;5052836;28;20434;-72
2023/06/22 06:48:39;;;;;;;15.05;7.82;;;;;;;;;;5054031;28;20024;-74
2023/06/22 06:51:05;;;;;;;13.43;5.90;;;;;;;;;;5064924;28;20087;-74
2023/06/22 06:53:30;;;;;;;12.00;6.45;;;;;;;;;;5053930;28;20029;-73
2023/06/22 06:55:56;;;;;;;9.43;6.00;;;;;;;;;;5055250;28;20482;-73
2023/06/22 06:58:22;;;;;;;11.38;6.15;;;;;;;;;;5052738;28;20017;-75
2023/06/22 07:00:49;;;;;;;10.75;6.10;;;;;;;;;;5069726;28;20489;-73
2023/06/22 07:03:15;;;;;;;12.50;7.10;;;;;;;;;;5073763;28;20054;-75
2023/06/22 07:05:41;;;;;;;10.70;6.53;;;;;;;;;;5063339;28;20021;-73
2023/06/22 07:08:06;;;;;;;9.05;5.13;;;;;;;;;;5057701;28;20021;-73
2023/06/22 07:10:33;;;;;;;7.15;4.55;;;;;;;;;;5060025;28;20027;-73
2023/06/22 07:12:58;;;;;;;9.25;4.72;;;;;;;;;;5053427;28;20044;-73
2023/06/22 07:15:23;;;;;;;11.90;5.60;;;;;;;;;;5053647;28;20029;-75
2023/06/22 07:17:48;;;;;;;10.15;5.93;;;;;;;;;;5053532;28;20056;-73
2023/06/22 07:20:14;;;;;;;10.82;5.63;;;;;;;;;;5061859;28;20108;-73
2023/06/22 07:22:41;;;;;;;8.18;4.40;;;;;;;;;;5073768;28;20020;-73
2023/06/22 07:25:09;;;;;;;8.23;4.18;;;;;;;;;;5048462;28;20025;-73
2023/06/22 07:27:42;;;;;;;8.80;4.88;;;;;;;;;;5072174;28;20111;-73
2023/06/22 07:30:09;;;;;;;7.10;3.88;;;;;;;;;;5072139;28;20020;-73
2023/06/22 07:32:35;;;;;;;10.80;4.40;;;;;;;;;;5072090;28;20102;-73
2023/06/22 07:35:01;;;;;;;9.30;4.95;;;;;;;;;;5073213;28;20020;-73
2023/06/22 07:37:27;;;;;;;8.18;4.53;;;;;;;;;;5073119;28;20501;-73
2023/06/22 07:39:53;;;;;;;11.93;6.00;;;;;;;;;;5071874;28;20089;-74
2023/06/22 07:42:19;;;;;;;9.18;5.57;;;;;;;;;;5066368;28;20025;-73
2023/06/22 07:44:44;;;;;;;11.25;5.90;;;;;;;;;;5068344;28;20020;-73
2023/06/22 07:47:09;;;;;;;9.40;5.32;;;;;;;;;;5071701;28;20031;-73
2023/06/22 07:49:35;;;;;;;7.15;4.63;;;;;;;;;;5071092;28;20490;-73
2023/06/22 07:52:01;;;;;;;10.60;4.18;;;;;;;;;;5055630;28;20028;-73
2023/06/22 07:54:26;;;;;;;8.38;4.03;;;;;;;;;;5034336;28;20032;-73
2023/06/22 07:56:53;;;;;;;6.72;4.13;;;;;;;;;;5056426;28;20021;-73
2023/06/22 07:59:18;;;;;;;9.27;4.95;;;;;;;;;;5068028;28;20032;-74
2023/06/22 08:01:43;;;;;;;10.25;5.13;;;;;;;;;;5065062;28;20021;-74
2023/06/22 08:04:09;;;;;;;10.27;5.35;;;;;;;;;;5067897;28;20100;-74
2023/06/22 08:06:34;;;;;;;8.35;4.00;;;;;;;;;;5067643;28;20497;-74
2023/06/22 08:08:59;;;;;;;6.45;4.00;;;;;;;;;;5072706;28;20036;-74
2023/06/22 08:11:25;;;;;;;9.95;4.95;;;;;;;;;;5067944;28;20041;-73
2023/06/22 08:13:51;;;;;;;7.18;3.50;;;;;;;;;;5071618;28;20389;-74
2023/06/22 08:16:16;;;;;;;6.40;3.42;;;;;;;;;;5067436;28;20021;-74
2023/06/22 08:18:41;;;;;;;6.63;3.22;;;;;;;;;;5051420;28;20027;-74
2023/06/22 08:21:06;;;;;;;5.68;3.33;;;;;;;;;;5059100;28;20107;-73
2023/06/22 08:23:32;;;;;;;7.30;4.05;;;;;;;;;;5071651;28;20039;-74
2023/06/22 08:25:57;;;;;;;7.25;3.65;;;;;;;;;;5068349;28;20025;-73
2023/06/22 08:28:22;;;;;;;7.93;3.67;;;;;;;;;;5034842;28;20104;-74
2023/06/22 08:30:47;;;;;;;9.70;4.45;;;;;;;;;;5051338;28;20024;-74
2023/06/22 08:33:13;;;;;;;6.82;3.75;;;;;;;;;;5065199;28;20028;-74
2023/06/22 08:35:38;;;;;;;6.50;3.65;;;;;;;;;;5052436;28;20574;-74
2023/06/22 08:38:04;;;;;;;8.52;3.40;;;;;;;;;;5059870;28;20028;-74
2023/06/22 08:40:29;;;;;;;7.30;2.97;;;;;;;;;;5071229;28;20111;-73
2023/06/22 08:42:55;;;;;;;5.07;3.00;;;;;;;;;;5069962;28;20039;-73
2023/06/22 08:45:20;;;;;;;7.18;3.17;;;;;;;;;;5071377;28;20059;-74
2023/06/22 08:47:45;;;;;;;4.93;2.67;;;;;;;;;;5057937;28;20160;-73
2023/06/22 08:50:11;;;;;;;4.38;2.38;;;;;;;;;;5052530;28;20410;-72
2023/06/22 08:52:37;;;;;;;5.07;2.58;;;;;;;;;;5053596;28;20499;-72
2023/06/22 08:55:04;;;;;;;4.15;2.72;;;;;;;;;;5052286;28;20017;-72
2023/06/22 08:57:30;;;;;;;4.00;2.63;;;;;;;;;;5036797;28;20027;-71
2023/06/22 08:59:58;;;;;;;7.20;3.10;;;;;;;;;;5072441;28;20522;-74
2023/06/22 09:02:24;;;;;;;6.32;2.97;;;;;;;;;;5070298;28;20029;-74
2023/06/22 09:04:55;;;;;;;5.72;3.40;;;;;;;;;;5070840;28;20359;-74
2023/06/22 09:07:22;;;;;;;5.78;2.83;;;;;;;;;;5067365;28;20045;-74
2023/06/22 09:09:47;;;;;;;5.35;3.05;;;;;;;;;;5038532;28;20021;-73
2023/06/22 09:12:12;;;;;;;6.00;3.60;;;;;;;;;;5056057;28;20451;-74
2023/06/22 09:14:39;;;;;;;4.95;2.40;;;;;;;;;;5055816;28;20119;-75
2023/06/22 09:17:05;;;;;;;6.03;2.50;;;;;;;;;;5060401;28;20025;-74
2023/06/22 09:19:30;;;;;;;6.15;3.03;;;;;;;;;;5054928;28;20043;-74
2023/06/22 09:21:55;;;;;;;6.15;2.63;;;;;;;;;;5067478;28;20500;-74
2023/06/22 09:24:20;;;;;;;4.70;2.03;;;;;;;;;;5075680;28;20039;-72
2023/06/22 09:26:46;;;;;;;6.32;3.00;;;;;;;;;;5070904;28;20029;-73
2023/06/22 09:29:11;;;;;;;3.60;2.40;;;;;;;;;;5054473;28;20056;-72
2023/06/22 09:31:36;;;;;;;4.00;2.35;;;;;;;;;;5055311;28;20115;-72
2023/06/22 09:34:02;;;;;;;5.13;2.22;;;;;;;;;;5074589;28;20017;-72
2023/06/22 09:36:27;;;;;;;4.78;2.78;;;;;;;;;;5073448;28;20061;-72
2023/06/22 09:38:55;;;;;;;4.10;2.83;;;;;;;;;;5051949;28;20025;-72
2023/06/22 09:41:21;;;;;;;4.30;2.42;;;;;;;;;;5037763;28;20017;-73
2023/06/22 09:43:48;;;;;;;4.68;2.42;;;;;;;;;;5056727;28;20031;-73
2023/06/22 09:46:15;;;;;;;5.18;2.55;;;;;;;;;;5054102;28;20090;-73
2023/06/22 09:48:40;;;;;;;5.55;2.83;;;;;;;;;;5055731;28;20514;-73
2023/06/22 09:51:05;;;;;;;4.05;2.17;;;;;;;;;;5055297;28;20033;-72
2023/06/22 09:53:31;;;;;;;3.20;2.00;;;;;;;;;;5058592;28;20024;-72
2023/06/22 09:55:57;;;;;;;4.50;2.78;;;;;;;;;;5075480;28;20021;-73
2023/06/22 09:58:22;;;;;;;6.40;3.38;;;;;;;;;;5064347;28;20024;-72
2023/06/22 10:00:47;;;;;;;3.25;2.70;;;;;;;;;;5053812;28;20443;-72
2023/06/22 10:03:13;;;;;;;4.75;2.25;;;;;;;;;;5057511;28;20052;-72
2023/06/22 10:05:38;;;;;;;4.93;2.67;;;;;;;;;;5053875;28;20551;-74
2023/06/22 10:08:03;;;;;;;4.82;2.72;;;;;;;;;;5054896;28;20075;-72
2023/06/22 10:10:29;;;;;;;6.20;3.00;;;;;;;;;;5073867;28;20051;-72
2023/06/22 10:12:56;;;;;;;6.43;2.83;;;;;;;;;;5074992;28;20020;-72
2023/06/22 10:15:22;;;;;;;5.35;2.55;;;;;;;;;;5073597;28;20024;-72
2023/06/22 10:17:47;;;;;;;4.53;2.53;;;;;;;;;;5071245;28;20418;-72
2023/06/22 10:20:13;;;;;;;4.18;2.60;;;;;;;;;;5054497;28;20536;-72
2023/06/22 10:22:43;;;;;;;4.85;2.33;;;;;;;;;;5054804;28;20028;-72
2023/06/22 10:25:09;;;;;;;;;;;;;;;;;;5073836;28;20016;-73
2023/06/22 10:27:34;;;;;;;7.35;2.90;;;;;;;;;;5073554;28;20003;-72
2023/06/22 10:30:00;;;;;;;3.67;2.67;;;;;;;;;;5074962;28;20033;-72
2023/06/22 10:32:25;;;;;;;4.95;2.35;;;;;;;;;;5071845;28;20035;-72
2023/06/22 10:34:50;;;;;;;7.93;2.20;;;;;;;;;;5073362;28;20024;-72
2023/06/22 10:37:16;;;;;;;5.97;2.70;;;;;;;;;;5073400;28;20024;-72
2023/06/22 10:39:41;;;;;;;5.53;2.28;;;;;;;;;;5054637;28;20031;-73
2023/06/22 10:42:07;;;;;;;3.30;1.90;;;;;;;;;;5054977;28;20036;-73
2023/06/22 10:44:32;;;;;;;4.32;2.25;;;;;;;;;;5073010;28;20071;-75
2023/06/22 10:46:58;;;;;;;3.65;2.22;;;;;;;;;;5074375;28;20029;-74
2023/06/22 10:49:23;;;;;;;3.42;2.00;;;;;;;;;;5055902;28;20025;-73
2023/06/22 10:51:48;;;;;;;4.32;2.40;;;;;;;;;;5054388;28;20017;-72
2023/06/22 10:54:14;;;;;;;4.88;2.03;;;;;;;;;;5070148;28;20020;-72
2023/06/22 10:56:40;;;;;;;5.30;2.30;;;;;;;;;;5073977;28;20091;-72
2023/06/22 10:59:05;;;;;;;5.32;2.30;;;;;;;;;;5070949;28;20031;-72
2023/06/22 11:01:33;;;;;;;5.82;2.40;;;;;;;;;;5054349;28;20020;-73
2023/06/22 11:03:59;;;;;;;4.22;2.05;;;;;;;;;;5053809;28;20063;-73
2023/06/22 11:06:24;;;;;;;5.13;2.15;;;;;;;;;;5056401;28;20032;-74
2023/06/22 11:08:49;;;;;;;4.50;2.40;;;;;;;;;;5053618;28;20029;-74
2023/06/22 11:11:17;;;;;;;3.63;1.88;;;;;;;;;;5056466;28;20202;-74
2023/06/22 11:13:43;;;;;;;3.97;1.83;;;;;;;;;;5069040;28;20453;-74
2023/06/22 11:16:09;;;;;;;3.20;2.05;;;;;;;;;;5071762;28;20044;-74
2023/06/22 11:18:34;;;;;;;5.32;2.17;;;;;;;;;;5069213;28;20486;-74
2023/06/22 11:21:00;;;;;;;4.00;2.30;;;;;;;;;;5059539;28;20032;-74
2023/06/22 11:23:27;;;;;;;3.97;1.95;;;;;;;;;;5073478;28;20032;-73
2023/06/22 11:25:52;;;;;;;3.80;2.15;;;;;;;;;;5071541;28;20077;-72
2023/06/22 11:28:17;;;;;;;3.47;1.95;;;;;;;;;;5052430;28;20033;-72
2023/06/22 11:30:43;;;;;;;4.13;2.10;;;;;;;;;;5051898;28;20421;-72
2023/06/22 11:33:08;;;;;;;3.03;2.38;;;;;;;;;;5064248;28;20036;-72
2023/06/22 11:35:33;;;;;;;3.55;1.90;;;;;;;;;;5059379;28;20023;-76
2023/06/22 11:37:59;;;;;;;4.15;2.10;;;;;;;;;;5068422;28;20036;-74
2023/06/22 11:40:24;;;;;;;3.38;1.83;;;;;;;;;;5064103;28;20031;-74
2023/06/22 11:42:49;;;;;;;3.92;1.83;;;;;;;;;;5073278;28;20019;-74
2023/06/22 11:45:15;;;;;;;3.83;2.78;;;;;;;;;;5073207;28;20512;-72
2023/06/22 11:47:40;;;;;;;2.90;1.90;;;;;;;;;;5071345;28;20052;-72
2023/06/22 11:50:06;;;;;;;3.15;2.00;;;;;;;;;;5055399;28;20489;-74
2023/06/22 11:52:31;;;;;;;3.33;2.05;;;;;;;;;;5072141;28;20051;-74
2023/06/22 11:54:59;;;;;;;3.83;2.00;;;;;;;;;;5072679;28;20032;-74
2023/06/22 11:57:24;;;;;;;3.90;1.95;;;;;;;;;;5069572;28;20477;-72
2023/06/22 11:59:49;;;;;;;4.97;2.25;;;;;;;;;;5053368;28;20025;-72
2023/06/22 12:02:14;;;;;;;3.72;2.00;;;;;;;;;;5061174;28;20016;-74
2023/06/22 12:04:40;;;;;;;3.90;1.98;;;;;;;;;;5072767;28;20033;-74
2023/06/22 12:07:05;;;;;;;5.57;2.00;;;;;;;;;;5070259;28;20035;-74
2023/06/22 12:09:30;;;;;;;4.18;1.95;;;;;;;;;;5073382;28;20055;-74
2023/06/22 12:11:55;;;;;;;3.63;2.00;;;;;;;;;;5071133;28;20028;-75
2023/06/22 12:14:21;;;;;;;5.40;2.20;;;;;;;;;;5066169;28;20052;-74
2023/06/22 12:16:46;;;;;;;3.38;1.90;;;;;;;;;;5067975;28;20032;-74
2023/06/22 12:19:12;;;;;;;3.45;1.85;;;;;;;;;;5071214;28;20082;-74
2023/06/22 12:21:38;;;;;;;2.83;1.80;;;;;;;;;;5072718;28;20071;-75
2023/06/22 12:24:03;;;;;;;3.90;1.60;;;;;;;;;;5064369;28;20033;-74
2023/06/22 12:26:28;;;;;;;5.68;1.77;;;;;;;;;;5053525;28;20112;-74
2023/06/22 12:28:54;;;;;;;4.53;1.80;;;;;;;;;;5071832;28;20564;-74
2023/06/22 12:31:19;;;;;;;2.78;1.95;;;;;;;;;;5071434;28;20021;-75
2023/06/22 12:33:44;;;;;;;5.32;2.08;;;;;;;;;;5058902;28;20024;-75
2023/06/22 12:36:09;;;;;;;2.45;1.73;;;;;;;;;;5052246;28;20024;-75
2023/06/22 12:38:35;;;;;;;3.05;1.73;;;;;;;;;;5061032;28;20107;-74
2023/06/22 12:41:00;;;;;;;2.42;1.52;;;;;;;;;;5072561;28;20027;-75
2023/06/22 12:43:25;;;;;;;3.25;1.52;;;;;;;;;;5065284;28;20028;-75
2023/06/22 12:45:51;;;;;;;3.22;1.60;;;;;;;;;;5075387;28;20066;-75
2023/06/22 12:48:16;;;;;;;2.60;1.42;;;;;;;;;;5071450;28;20501;-75
2023/06/22 12:50:42;;;;;;;3.00;1.65;;;;;;;;;;5056744;28;20052;-75
2023/06/22 12:53:07;;;;;;;3.63;2.00;;;;;;;;;;5057529;28;20099;-75
2023/06/22 12:55:32;;;;;;;2.88;1.80;;;;;;;;;;5071956;28;20035;-75
2023/06/22 12:57:58;;;;;;;3.15;1.80;;;;;;;;;;5056215;28;20597;-74
2023/06/22 13:00:23;;;;;;;2.30;1.50;;;;;;;;;;5067715;28;20029;-74
2023/06/22 13:02:48;;;;;;;3.38;1.85;;;;;;;;;;5064506;28;20061;-75
2023/06/22 13:05:14;;;;;;;4.75;1.75;;;;;;;;;;5056162;28;20118;-75
2023/06/22 13:07:39;;;;;;;3.20;1.70;;;;;;;;;;5040784;28;20033;-75
2023/06/22 13:10:05;;;;;;;4.00;1.83;;;;;;;;;;5054911;28;20017;-73
2023/06/22 13:12:30;;;;;;;2.03;1.55;;;;;;;;;;5057842;28;20029;-73
2023/06/22 13:14:55;;;;;;;3.50;2.00;;;;;;;;;;5070528;28;20393;-73
2023/06/22 13:17:20;;;;;;;2.25;1.50;;;;;;;;;;5074684;28;20039;-73
2023/06/22 13:19:46;;;;;;;3.72;1.77;;;;;;;;;;5054221;28;20025;-73
2023/06/22 13:22:27;;;;;;;3.65;2.08;;;;;;;;;;5056228;28;20431;-73
2023/06/22 13:24:52;;;;;;;3.72;2.13;;;;;;;;;;5054659;28;20367;-73
2023/06/22 13:27:17;;;;;;;3.85;1.60;;;;;;;;;;5066069;28;20036;-73
2023/06/22 13:29:43;;;;;;;2.55;1.85;;;;;;;;;;5056120;28;20086;-74
2023/06/22 13:32:08;;;;;;;3.33;1.77;;;;;;;;;;5062947;28;20031;-73
2023/06/22 13:34:33;;;;;;;2.33;1.50;;;;;;;;;;5072042;28;20096;-73
2023/06/22 13:36:59;;;;;;;2.33;1.65;;;;;;;;;;5065877;28;20019;-74
2023/06/22 13:39:24;;;;;;;3.33;1.63;;;;;;;;;;5055463;28;20381;-73
2023/06/22 13:41:49;;;;;;;2.40;1.60;;;;;;;;;;5075862;28;20025;-76
2023/06/22 13:44:14;;;;;;;3.38;1.70;;;;;;;;;;5075729;28;20103;-76
2023/06/22 13:46:40;;;;;;;2.28;1.60;;;;;;;;;;5066569;28;20028;-76
2023/06/22 13:49:05;;;;;;;2.40;1.50;;;;;;;;;;5072306;28;20028;-76
2023/06/22 13:51:30;;;;;;;2.60;1.70;;;;;;;;;;5056371;28;20078;-74
2023/06/22 13:53:55;;;;;;;3.83;1.60;;;;;;;;;;5056730;28;20028;-74
2023/06/22 13:56:21;;;;;;;2.47;1.70;;;;;;;;;;5069632;28;20025;-74
2023/06/22 13:58:46;;;;;;;4.05;1.88;;;;;;;;;;5060434;28;20394;-74
2023/06/22 14:01:12;;;;;;;2.95;1.70;;;;;;;;;;5072171;28;20079;-74
2023/06/22 14:03:37;;;;;;;2.58;1.73;;;;;;;;;;5040248;28;20031;-74
2023/06/22 14:06:04;;;;;;;2.83;1.80;;;;;;;;;;5074999;28;20032;-75
2023/06/22 14:08:29;;;;;;;2.63;1.60;;;;;;;;;;5073897;28;20023;-74
2023/06/22 14:10:54;;;;;;;3.50;1.85;;;;;;;;;;5075253;28;20107;-74
2023/06/22 14:13:20;;;;;;;4.53;1.90;;;;;;;;;;5074053;28;20024;-74
2023/06/22 14:15:48;;;;;;;2.97;1.60;;;;;;;;;;5073511;28;20028;-74
2023/06/22 14:18:14;;;;;;;2.67;1.85;;;;;;;;;;5075002;28;20020;-74
2023/06/22 14:20:39;;;;;;;2.80;1.90;;;;;;;;;;5072038;28;20099;-74
2023/06/22 14:23:05;;;;;;;3.72;1.65;;;;;;;;;;5066320;28;20474;-74
2023/06/22 14:25:30;;;;;;;2.58;1.65;;;;;;;;;;5073372;28;20056;-76
2023/06/22 14:27:55;;;;;;;2.80;1.90;;;;;;;;;;5069740;28;20087;-76
2023/06/22 14:30:21;;;;;;;3.42;1.60;;;;;;;;;;5053665;28;20025;-76